Mad River Glen, Vermont
Current Conditions -  °F | °C
As of 10:51 PM on Tuesday 21 Oct 2014 (Local Time) from KMPV Reporting Station
Light Rain Light Rain  
Wind Chill: 43°   Ceiling: 900
Heat Index: 45°   Visibility: 7mi
Dew Point: 45°   Wind: 5mph
Humidity: 100%   Direction: 340°NNW
Pressure: 30.12"   Gusts: NA
Location:  44.1924°N, 72.8443°W
Report Text: KMPV 220251Z AUTO 34004KT 7SM -RA BKN009 OVC013 07/07 A3012 RMK AO2 RAB12 CIG 006V012 SLP208 P0002 60002 T00720072 53016
Loading
Personal Weather Stations






























Interactive Weather Map
Tropical Storm Tracking
New forecast layout! Learn more

10-Day Weather Forecast

Advertisements
Track Severe Weather on mobile